Time;durP1;ratioP1;P1;durP2;ratioP2;P2;SDS_P1;SDS_P2;PMS_P1;PMS_P2;Temp;Humidity;BMP_temperature;BMP_pressure;BME280_temperature;BME280_humidity;BME280_pressure;Samples;Min_cycle;Max_cycle;Signal;HPM_P1;HPM_P2
2022/03/07 00:00:49;;;;;;;5.53;3.50;;;;;;;0.05;77.21;102772.38;5053922;28;20032;-35
2022/03/07 00:03:15;;;;;;;4.78;3.42;;;;;;;0.13;76.97;102800.09;5053290;28;20158;-34
2022/03/07 00:05:40;;;;;;;6.20;3.67;;;;;;;0.14;76.99;102808.94;5053907;28;20061;-35
2022/03/07 00:08:05;;;;;;;4.77;3.50;;;;;;;0.10;76.32;102807.44;5053312;28;20047;-35
2022/03/07 00:10:31;;;;;;;5.80;3.50;;;;;;;0.02;76.35;102796.56;5053408;28;20033;-35
2022/03/07 00:12:56;;;;;;;6.10;3.63;;;;;;;0.09;77.82;102809.25;5053165;28;20326;-35
2022/03/07 00:15:21;;;;;;;5.37;3.63;;;;;;;0.13;79.03;102805.41;5053534;28;20032;-35
2022/03/07 00:17:47;;;;;;;5.20;3.33;;;;;;;0.13;78.55;102810.75;5053540;28;20025;-34
2022/03/07 00:20:12;;;;;;;4.53;3.50;;;;;;;0.10;79.11;102802.13;5053691;28;20033;-34
2022/03/07 00:22:38;;;;;;;6.10;3.88;;;;;;;0.06;78.27;102808.66;5053136;28;20377;-35
2022/03/07 00:25:03;;;;;;;8.20;4.00;;;;;;;-0.05;77.37;102801.47;5053398;28;20427;-34
2022/03/07 00:27:29;;;;;;;7.68;4.35;;;;;;;-0.07;77.70;102806.06;5053054;28;20377;-35
2022/03/07 00:29:54;;;;;;;4.87;3.73;;;;;;;-0.19;78.11;102802.50;5053291;28;20052;-35
2022/03/07 00:32:19;;;;;;;7.50;4.10;;;;;;;-0.13;77.74;102820.66;5052920;28;20032;-35
2022/03/07 00:34:45;;;;;;;5.07;3.67;;;;;;;-0.16;78.55;102817.38;5053087;28;20052;-35
2022/03/07 00:37:10;;;;;;;5.77;3.70;;;;;;;-0.14;79.87;102820.78;5052980;28;20033;-35
2022/03/07 00:39:35;;;;;;;5.50;4.27;;;;;;;-0.45;78.08;102788.44;5053308;28;20024;-35
2022/03/07 00:42:01;;;;;;;8.87;4.50;;;;;;;-0.31;78.17;102816.69;5052884;28;20032;-35
2022/03/07 00:44:26;;;;;;;5.75;4.28;;;;;;;-0.23;79.85;102824.97;5052830;28;20025;-35
2022/03/07 00:46:52;;;;;;;5.93;4.37;;;;;;;-0.38;79.18;102810.97;5052996;28;20389;-35
2022/03/07 00:49:17;;;;;;;6.33;3.93;;;;;;;-0.32;80.32;102810.50;5051661;28;20037;-34
2022/03/07 00:51:42;;;;;;;5.30;3.77;;;;;;;-0.30;79.66;102818.38;5053245;28;20388;-35
2022/03/07 00:54:08;;;;;;;5.20;3.73;;;;;;;-0.24;81.09;102819.72;5053264;28;20453;-35
2022/03/07 00:56:33;;;;;;;4.83;3.60;;;;;;;-0.31;79.91;102817.53;5052529;28;20029;-34
2022/03/07 00:58:59;;;;;;;7.23;4.77;;;;;;;-0.48;79.28;102817.06;5052527;28;20033;-34
2022/03/07 01:01:24;;;;;;;6.73;4.60;;;;;;;-0.52;79.26;102824.41;5052969;28;20029;-35
2022/03/07 01:03:50;;;;;;;5.13;3.97;;;;;;;-0.43;80.85;102825.56;5052964;28;20259;-34
2022/03/07 01:06:15;;;;;;;6.18;4.60;;;;;;;-0.48;79.47;102825.88;5051499;28;20052;-35
2022/03/07 01:08:40;;;;;;;6.77;4.00;;;;;;;-0.43;81.16;102823.75;5052606;28;20041;-35
2022/03/07 01:11:06;;;;;;;6.17;3.93;;;;;;;-0.43;79.66;102825.56;5052406;28;20025;-34
2022/03/07 01:13:31;;;;;;;4.73;3.97;;;;;;;-0.54;79.90;102815.69;5051411;28;20032;-34
2022/03/07 01:15:57;;;;;;;4.57;3.60;;;;;;;-0.36;82.63;102821.47;5052693;28;20108;-35
2022/03/07 01:18:22;;;;;;;5.50;3.87;;;;;;;-0.48;81.86;102806.44;5052228;28;20084;-34
2022/03/07 01:20:48;;;;;;;6.27;4.17;;;;;;;-0.58;80.45;102814.22;5052488;28;20739;-35
2022/03/07 01:23:13;;;;;;;4.73;4.20;;;;;;;-0.55;79.96;102827.28;5052686;28;20028;-34
2022/03/07 01:25:38;;;;;;;7.90;4.95;;;;;;;-0.67;79.72;102815.72;5052709;28;20035;-35
2022/03/07 01:28:04;;;;;;;6.10;4.23;;;;;;;-0.67;80.22;102815.72;5052186;28;20037;-35
2022/03/07 01:30:30;;;;;;;5.80;4.57;;;;;;;-0.67;79.99;102821.03;5053205;28;20032;-34
2022/03/07 01:32:55;;;;;;;6.10;4.43;;;;;;;-0.71;81.20;102813.41;5052312;28;20032;-35
2022/03/07 01:35:20;;;;;;;6.03;4.00;;;;;;;-0.63;82.23;102827.00;5052169;28;20127;-35
2022/03/07 01:37:47;;;;;;;6.63;4.57;;;;;;;-0.69;81.01;102820.28;5052637;28;20086;-35
2022/03/07 01:40:13;;;;;;;;;;;;;;;-0.55;80.06;102816.63;5052711;28;20036;-34
2022/03/07 01:42:38;;;;;;;5.20;4.45;;;;;;;-0.74;79.75;102808.28;5052292;28;19990;-35
2022/03/07 01:45:21;;;;;;;6.33;3.77;;;;;;;-0.75;80.71;102806.59;5052741;28;20032;-34
2022/03/07 01:47:47;;;;;;;6.70;4.53;;;;;;;-0.73;81.14;102815.28;5052360;28;20029;-35
2022/03/07 01:50:15;;;;;;;5.63;4.40;;;;;;;-0.82;80.11;102816.81;5052303;28;20040;-35
2022/03/07 01:52:44;;;;;;;8.32;4.43;;;;;;;-0.70;81.61;102807.97;5051705;28;20078;-34
2022/03/07 01:55:11;;;;;;;8.27;4.63;;;;;;;-0.74;81.32;102816.25;5052757;28;20029;-35
2022/03/07 01:57:38;;;;;;;5.75;4.05;;;;;;;-0.78;80.63;102818.31;5055094;28;20477;-35
2022/03/07 02:00:40;;;;;;;7.70;5.05;;;;;;;-0.84;81.65;102808.94;5055672;28;20484;-34
2022/03/07 02:03:06;;;;;;;5.25;4.03;;;;;;;-0.75;82.64;102809.25;5033741;28;20145;-35
2022/03/07 02:05:32;;;;;;;4.82;4.13;;;;;;;-0.79;81.46;102817.44;5033963;28;20377;-35
2022/03/07 02:07:58;;;;;;;5.33;4.27;;;;;;;-0.77;82.69;102800.56;5033281;28;20064;-35
2022/03/07 02:10:29;;;;;;;5.95;4.88;;;;;;;-0.84;82.02;102803.63;5033541;28;20124;-34
2022/03/07 02:12:55;;;;;;;5.80;4.28;;;;;;;-0.89;80.74;102805.75;5033228;28;20138;-35
2022/03/07 02:15:21;;;;;;;9.00;5.40;;;;;;;-0.85;81.34;102799.28;5033162;28;20068;-34
2022/03/07 02:17:46;;;;;;;5.20;3.97;;;;;;;-0.76;83.00;102799.59;5033115;28;20143;-35
2022/03/07 02:20:13;;;;;;;6.87;4.57;;;;;;;-0.90;83.30;102780.16;5033519;28;20044;-35
2022/03/07 02:22:38;;;;;;;4.93;4.13;;;;;;;-0.98;82.67;102769.22;5033239;28;20072;-35
2022/03/07 02:25:04;;;;;;;7.63;4.80;;;;;;;-0.83;82.11;102799.16;5033467;28;20131;-35
2022/03/07 02:27:29;;;;;;;6.63;4.10;;;;;;;-0.96;80.70;102791.22;5033019;28;20513;-34
2022/03/07 02:29:54;;;;;;;6.40;4.70;;;;;;;-1.02;81.12;102789.00;5033041;28;20465;-35
2022/03/07 02:32:21;;;;;;;6.07;4.87;;;;;;;-0.90;81.64;102796.09;5016188;28;20465;-35
2022/03/07 02:34:47;;;;;;;6.22;5.10;;;;;;;-0.95;81.78;102792.06;5032619;28;20053;-35
2022/03/07 02:37:13;;;;;;;6.07;4.85;;;;;;;-0.92;83.71;102782.09;5032703;28;20079;-34
2022/03/07 02:39:38;;;;;;;6.33;4.53;;;;;;;-0.84;83.84;102787.69;5053289;28;20041;-34
2022/03/07 02:42:04;;;;;;;5.30;4.60;;;;;;;-0.89;82.75;102800.44;5055603;28;20029;-35
2022/03/07 02:44:29;;;;;;;8.07;4.90;;;;;;;-0.97;82.36;102800.16;5055360;28;20029;-35
2022/03/07 02:46:54;;;;;;;6.00;4.60;;;;;;;-0.97;82.33;102800.16;5054853;28;20064;-34
2022/03/07 02:49:20;;;;;;;5.63;4.47;;;;;;;-0.92;83.73;102798.03;5055357;28;20055;-34
2022/03/07 02:51:45;;;;;;;5.57;4.70;;;;;;;-1.02;82.81;102799.63;5054645;28;20028;-34
2022/03/07 02:54:11;;;;;;;6.37;4.80;;;;;;;-1.11;81.86;102787.84;5054547;28;20286;-34
2022/03/07 02:56:37;;;;;;;6.37;5.20;;;;;;;-1.03;82.54;102797.91;5054560;28;20033;-35
2022/03/07 02:59:03;;;;;;;6.57;4.78;;;;;;;-1.12;82.67;102794.13;5054191;28;20280;-35
2022/03/07 03:01:28;;;;;;;5.40;4.63;;;;;;;-1.07;83.43;102793.78;5054289;28;20078;-35
2022/03/07 03:03:53;;;;;;;7.37;4.77;;;;;;;-1.23;83.47;102780.72;5054449;28;20025;-35
2022/03/07 03:06:19;;;;;;;10.43;5.07;;;;;;;-1.11;82.53;102789.66;5055220;28;20112;-35
2022/03/07 03:08:44;;;;;;;6.27;4.77;;;;;;;-1.20;83.10;102795.59;5054253;28;20056;-35
2022/03/07 03:11:10;;;;;;;6.37;4.50;;;;;;;-1.16;83.39;102783.81;5054672;28;20109;-34
2022/03/07 03:13:35;;;;;;;6.17;4.90;;;;;;;-1.20;82.58;102787.63;5053909;28;20059;-34
2022/03/07 03:16:00;;;;;;;6.03;4.97;;;;;;;-1.19;83.17;102789.31;5054571;28;20037;-34
2022/03/07 03:18:26;;;;;;;6.03;4.87;;;;;;;-1.18;83.96;102785.72;5054140;28;20033;-35
2022/03/07 03:20:52;;;;;;;7.95;5.28;;;;;;;-1.23;84.19;102786.03;5054638;28;20358;-35
2022/03/07 03:23:19;;;;;;;5.53;4.70;;;;;;;-1.28;83.41;102789.97;5053979;28;20125;-34
2022/03/07 03:25:44;;;;;;;7.25;5.00;;;;;;;-1.30;84.21;102790.91;5054039;28;20036;-34
2022/03/07 03:28:11;;;;;;;7.88;5.45;;;;;;;-1.38;84.70;102793.25;5054003;28;20025;-35
2022/03/07 03:30:36;;;;;;;5.78;4.90;;;;;;;-1.42;84.44;102789.09;5053934;28;20029;-34
2022/03/07 03:33:02;;;;;;;7.93;5.50;;;;;;;-1.49;85.19;102795.78;5053875;28;20037;-34
2022/03/07 03:35:28;;;;;;;7.03;5.72;;;;;;;-1.44;85.30;102792.81;5054175;28;20057;-35
2022/03/07 03:37:53;;;;;;;9.18;5.68;;;;;;;-1.46;84.75;102794.75;5053751;28;20056;-35
2022/03/07 03:40:19;;;;;;;7.43;5.60;;;;;;;-1.62;85.06;102787.81;5053835;28;20028;-34
2022/03/07 03:42:45;;;;;;;8.57;6.43;;;;;;;-1.54;85.96;102800.56;5053374;28;20107;-35
2022/03/07 03:45:11;;;;;;;6.63;5.40;;;;;;;-1.58;86.00;102805.22;5053359;28;20207;-35
2022/03/07 03:47:37;;;;;;;;;;;;;;;-1.50;84.91;102807.38;5053988;28;20128;-35
2022/03/07 03:50:05;;;;;;;7.38;4.80;;;;;;;-1.39;86.63;102796.00;5053579;28;19912;-35
2022/03/07 03:52:31;;;;;;;6.72;5.50;;;;;;;-1.36;86.06;102791.34;5053298;28;20033;-34
2022/03/07 03:54:56;;;;;;;8.23;5.18;;;;;;;-1.37;85.41;102789.63;5053999;28;20043;-35
2022/03/07 03:57:22;;;;;;;6.13;5.30;;;;;;;-1.23;85.89;102798.44;5053487;28;20484;-34
2022/03/07 03:59:48;;;;;;;7.25;5.32;;;;;;;-1.20;85.63;102800.91;5053421;28;20264;-34
2022/03/07 04:02:13;;;;;;;6.50;5.35;;;;;;;-1.17;85.87;102798.00;5053343;28;20052;-34
2022/03/07 04:04:39;;;;;;;8.83;5.97;;;;;;;-1.14;85.91;102797.81;5052245;28;20072;-35
2022/03/07 04:07:04;;;;;;;5.80;5.07;;;;;;;-1.21;85.20;102783.28;5053738;28;20025;-34
2022/03/07 04:09:29;;;;;;;5.67;4.93;;;;;;;-1.09;84.99;102798.34;5053490;28;20513;-35
2022/03/07 04:11:55;;;;;;;6.47;5.50;;;;;;;-1.17;84.36;102795.38;5053321;28;20037;-34
2022/03/07 04:14:21;;;;;;;5.93;5.30;;;;;;;-1.14;86.11;102785.38;5053172;28;20064;-34
2022/03/07 04:16:46;;;;;;;9.00;5.20;;;;;;;-1.11;85.61;102794.97;5053822;28;20060;-34
2022/03/07 04:19:12;;;;;;;7.30;5.20;;;;;;;-1.28;84.86;102792.63;5052479;28;20104;-34
2022/03/07 04:21:39;;;;;;;7.85;5.85;;;;;;;-1.18;85.51;102799.81;5053605;28;20056;-35
2022/03/07 04:24:06;;;;;;;7.38;5.20;;;;;;;-1.11;87.04;102789.66;5052972;28;20029;-34
2022/03/07 04:26:32;;;;;;;6.10;5.07;;;;;;;-1.11;86.57;102792.31;5053262;28;20056;-34
2022/03/07 04:28:57;;;;;;;7.03;5.95;;;;;;;-1.22;84.62;102800.16;5052910;28;20029;-35
2022/03/07 04:31:23;;;;;;;8.00;5.82;;;;;;;-1.28;85.11;102792.63;5053528;28;20338;-34
2022/03/07 04:33:49;;;;;;;9.05;6.32;;;;;;;-1.26;85.36;102801.34;5052696;28;20449;-34
2022/03/07 04:36:18;;;;;;;8.02;6.30;;;;;;;-1.35;85.06;102776.28;5052179;28;20464;-35
2022/03/07 04:38:44;;;;;;;8.45;5.88;;;;;;;-1.20;86.67;102801.75;5052698;28;20029;-34
2022/03/07 04:41:09;;;;;;;6.50;5.73;;;;;;;-1.22;85.49;102797.50;5052816;28;20074;-35
2022/03/07 04:43:34;;;;;;;6.40;5.53;;;;;;;-1.25;86.39;102795.06;5053185;28;20279;-35
2022/03/07 04:46:00;;;;;;;7.17;5.37;;;;;;;-1.30;85.81;102795.38;5053280;28;20172;-34
2022/03/07 04:48:26;;;;;;;8.00;5.70;;;;;;;-1.33;85.52;102806.19;5052402;28;20056;-35
2022/03/07 04:50:51;;;;;;;8.15;5.95;;;;;;;-1.33;85.34;102798.25;5053121;28;20029;-35
2022/03/07 04:53:17;;;;;;;7.32;6.53;;;;;;;-1.41;85.20;102804.09;5052875;28;20033;-34
2022/03/07 04:55:42;;;;;;;8.30;6.57;;;;;;;-1.41;84.88;102798.78;5052666;28;20033;-34
2022/03/07 04:58:07;;;;;;;7.17;6.10;;;;;;;-1.47;85.45;102798.31;5052610;28;20132;-34
2022/03/07 05:00:33;;;;;;;6.63;5.90;;;;;;;-1.47;85.57;102804.47;5052864;28;20059;-34
2022/03/07 05:02:58;;;;;;;7.23;6.23;;;;;;;-1.53;85.98;102804.06;5052887;28;20036;-34
2022/03/07 05:05:23;;;;;;;7.50;6.30;;;;;;;-1.49;86.63;102801.09;5052337;28;20021;-35
2022/03/07 05:07:49;;;;;;;6.00;5.17;;;;;;;-1.36;88.64;102791.34;5052243;28;20033;-34
2022/03/07 05:10:16;;;;;;;7.80;6.43;;;;;;;-1.48;86.68;102797.47;5053146;28;20029;-35
2022/03/07 05:12:42;;;;;;;7.03;5.90;;;;;;;-1.38;88.56;102795.91;5052503;28;20083;-34
2022/03/07 05:15:08;;;;;;;6.20;5.55;;;;;;;-1.41;87.76;102795.28;5052893;28;20036;-34
2022/03/07 05:17:44;;;;;;;10.43;7.28;;;;;;;-1.49;86.86;102786.97;5052359;28;20024;-35
2022/03/07 05:20:11;;;;;;;9.25;6.35;;;;;;;-1.65;86.00;102789.84;5053181;28;20107;-35
2022/03/07 05:22:36;;;;;;;7.03;6.13;;;;;;;-1.73;85.65;102798.28;5052546;28;20047;-35
2022/03/07 05:25:04;;;;;;;9.18;6.88;;;;;;;-1.72;85.62;102800.00;5052559;28;20112;-34
2022/03/07 05:27:29;;;;;;;6.32;5.72;;;;;;;-1.67;87.61;102791.72;5052262;28;20113;-34
2022/03/07 05:29:54;;;;;;;7.13;6.10;;;;;;;-1.79;86.03;102793.41;5052396;28;20450;-35
2022/03/07 05:32:20;;;;;;;6.70;5.70;;;;;;;-1.74;86.77;102793.09;5054916;28;20521;-34
2022/03/07 05:34:45;;;;;;;8.37;7.07;;;;;;;-1.83;86.42;102803.38;5055903;28;20056;-34
2022/03/07 05:37:10;;;;;;;8.77;7.00;;;;;;;-1.89;86.68;102806.44;5056039;28;20053;-34
2022/03/07 05:39:36;;;;;;;11.00;7.03;;;;;;;-1.84;87.42;102801.66;5056689;28;20029;-34
2022/03/07 05:42:01;;;;;;;8.13;7.33;;;;;;;-1.83;86.88;102798.06;5056031;28;20112;-34
2022/03/07 05:44:27;;;;;;;12.05;7.10;;;;;;;-1.65;89.26;102795.13;5056602;28;20067;-34
2022/03/07 05:46:52;;;;;;;9.57;7.23;;;;;;;-1.71;88.00;102795.53;5055882;28;20029;-35
2022/03/07 05:49:17;;;;;;;10.40;7.47;;;;;;;-1.74;87.83;102778.03;5055881;28;20457;-34
2022/03/07 05:51:44;;;;;;;8.43;7.20;;;;;;;-1.66;88.01;102804.03;5055747;28;20094;-34
2022/03/07 05:54:09;;;;;;;;;;;;;;;-1.62;86.33;102800.22;5056055;28;20465;-34
2022/03/07 05:56:34;;;;;;;8.30;6.88;;;;;;;-1.77;85.16;102803.91;5055698;28;19919;-34
2022/03/07 05:59:00;;;;;;;10.13;7.67;;;;;;;-1.82;86.67;102806.88;5055657;28;20021;-34
2022/03/07 06:01:25;;;;;;;10.03;6.80;;;;;;;-1.80;87.83;102802.31;5056348;28;20028;-34
2022/03/07 06:03:50;;;;;;;10.10;7.70;;;;;;;-1.82;87.61;102818.31;5056182;28;20030;-34
2022/03/07 06:06:16;;;;;;;11.40;8.20;;;;;;;-1.89;87.79;102810.88;5055713;28;20120;-35
2022/03/07 06:08:41;;;;;;;9.07;7.33;;;;;;;-1.75;87.99;102817.94;5055981;28;20051;-34
2022/03/07 06:11:06;;;;;;;12.67;8.43;;;;;;;-1.82;86.51;102825.44;5055988;28;20313;-34
2022/03/07 06:13:32;;;;;;;9.73;8.63;;;;;;;-2.05;86.44;102818.97;5055723;28;20091;-35
2022/03/07 06:15:57;;;;;;;10.30;8.30;;;;;;;-2.03;86.28;102842.75;5055536;28;20017;-34
2022/03/07 06:18:22;;;;;;;8.43;7.50;;;;;;;-2.07;86.10;102835.00;5056000;28;20029;-34
2022/03/07 06:20:48;;;;;;;10.33;8.40;;;;;;;-2.13;87.16;102831.91;5055215;28;20036;-35
2022/03/07 06:23:13;;;;;;;9.37;7.97;;;;;;;-2.16;87.22;102848.00;5055174;28;20065;-34
2022/03/07 06:25:38;;;;;;;9.60;8.13;;;;;;;-2.32;87.10;102819.00;5055881;28;20059;-34
2022/03/07 06:28:04;;;;;;;11.00;8.63;;;;;;;-2.25;86.68;102822.09;5055401;28;20453;-34
2022/03/07 06:30:30;;;;;;;9.25;7.57;;;;;;;-2.12;87.87;102834.44;5056021;28;20481;-34
2022/03/07 06:32:55;;;;;;;9.65;8.02;;;;;;;-2.26;87.34;102831.00;5055109;28;20415;-34
2022/03/07 06:35:21;;;;;;;8.60;7.57;;;;;;;-2.15;88.46;102836.44;5055580;28;20053;-34
2022/03/07 06:37:48;;;;;;;8.83;7.90;;;;;;;-2.09;88.52;102854.63;5055356;28;20075;-34
2022/03/07 06:40:13;;;;;;;11.13;8.52;;;;;;;-2.01;88.02;102857.59;5055047;28;20053;-34
2022/03/07 06:42:39;;;;;;;9.50;7.80;;;;;;;-1.97;87.70;102853.81;5054544;28;20071;-34
2022/03/07 06:45:05;;;;;;;9.20;7.97;;;;;;;-1.99;87.02;102855.72;5055477;28;20036;-34
2022/03/07 06:47:30;;;;;;;9.30;7.85;;;;;;;-2.02;87.77;102850.59;5054844;28;20033;-34
2022/03/07 06:49:57;;;;;;;9.73;7.53;;;;;;;-1.74;89.31;102860.25;5054664;28;20060;-34
2022/03/07 06:52:23;;;;;;;9.45;7.72;;;;;;;-1.78;88.93;102863.22;5054721;28;20028;-34
2022/03/07 06:54:49;;;;;;;8.50;7.65;;;;;;;-1.66;89.31;102855.31;5054830;28;20029;-34
2022/03/07 06:57:14;;;;;;;8.60;7.68;;;;;;;-1.75;87.81;102857.72;5054765;28;20032;-35
2022/03/07 06:59:40;;;;;;;9.87;7.97;;;;;;;-1.64;87.49;102861.34;5055575;28;20178;-35
2022/03/07 07:02:05;;;;;;;12.87;8.37;;;;;;;-1.61;87.46;102855.84;5053538;28;20061;-35
2022/03/07 07:04:30;;;;;;;10.93;8.03;;;;;;;-1.45;88.26;102847.72;5054988;28;20063;-35
2022/03/07 07:06:56;;;;;;;13.27;9.00;;;;;;;-1.60;87.72;102825.72;5054614;28;20029;-35
2022/03/07 07:09:21;;;;;;;10.80;7.80;;;;;;;-1.31;87.39;102855.59;5054650;28;20033;-35
2022/03/07 07:11:46;;;;;;;12.57;8.43;;;;;;;-1.18;86.70;102854.72;5054760;28;20090;-35
2022/03/07 07:14:11;;;;;;;12.97;8.23;;;;;;;-1.18;86.34;102857.38;5055087;28;20029;-35
2022/03/07 07:16:37;;;;;;;9.40;8.40;;;;;;;-1.14;87.09;102837.63;5054717;28;20029;-35
2022/03/07 07:19:02;;;;;;;11.27;9.23;;;;;;;-1.27;86.11;102823.50;5054371;28;20373;-35
2022/03/07 07:21:28;;;;;;;10.63;9.33;;;;;;;-1.15;85.58;102850.06;5054628;28;20063;-35
2022/03/07 07:23:53;;;;;;;13.53;9.83;;;;;;;-1.05;85.98;102859.09;5054052;28;20359;-35
2022/03/07 07:26:18;;;;;;;12.50;8.77;;;;;;;-0.96;85.75;102848.81;5054031;28;20021;-35
2022/03/07 07:28:45;;;;;;;12.87;8.83;;;;;;;-0.91;86.00;102852.84;5054671;28;20025;-35
2022/03/07 07:31:10;;;;;;;11.05;9.00;;;;;;;-0.83;86.64;102836.34;5054045;28;20017;-35
2022/03/07 07:33:36;;;;;;;9.93;8.93;;;;;;;-0.67;86.76;102833.47;5053994;28;20103;-35
2022/03/07 07:36:02;;;;;;;11.83;8.53;;;;;;;-0.52;85.54;102853.63;5054457;28;20144;-35
2022/03/07 07:38:28;;;;;;;11.85;8.40;;;;;;;-0.47;86.16;102840.03;5053649;28;20029;-35
2022/03/07 07:40:55;;;;;;;11.83;8.93;;;;;;;-0.27;85.87;102856.22;5054234;28;20083;-35
2022/03/07 07:43:21;;;;;;;10.35;8.15;;;;;;;-0.18;84.18;102848.56;5053830;28;20033;-35
2022/03/07 07:45:46;;;;;;;9.30;8.20;;;;;;;-0.17;84.27;102847.59;5054409;28;20025;-35
2022/03/07 07:48:11;;;;;;;10.80;8.60;;;;;;;-0.11;83.11;102849.78;5054578;28;20040;-35
2022/03/07 07:50:37;;;;;;;10.47;8.37;;;;;;;-0.01;82.64;102866.78;5053863;28;20612;-35
2022/03/07 07:53:02;;;;;;;11.67;8.67;;;;;;;0.02;81.85;102871.88;5054261;28;20115;-35
2022/03/07 07:55:28;;;;;;;8.37;7.40;;;;;;;0.17;84.62;102852.13;5053257;28;20103;-35
2022/03/07 07:57:53;;;;;;;8.60;7.20;;;;;;;0.22;82.35;102873.06;5053779;28;20029;-35
2022/03/07 08:00:22;;;;;;;10.50;7.63;;;;;;;0.32;81.98;102868.75;5053443;28;20025;-35
2022/03/07 08:02:48;;;;;;;12.70;8.43;;;;;;;0.33;81.09;102858.97;5054047;28;20366;-35
2022/03/07 08:05:14;;;;;;;9.70;8.05;;;;;;;0.43;81.15;102871.47;5054079;28;20025;-35
2022/03/07 08:07:41;;;;;;;10.32;8.77;;;;;;;0.40;80.46;102860.22;5053172;28;20466;-35
2022/03/07 08:10:08;;;;;;;9.50;8.10;;;;;;;0.61;81.26;102874.56;5054285;28;20037;-35
2022/03/07 08:12:33;;;;;;;;;;;;;;;0.71;80.84;102877.38;5054076;28;20032;-35
2022/03/07 08:14:58;;;;;;;11.47;8.67;;;;;;;0.67;80.73;102867.91;5053629;28;19916;-35
2022/03/07 08:17:23;;;;;;;10.20;7.93;;;;;;;0.73;79.30;102876.31;5053123;28;20636;-35
2022/03/07 08:19:49;;;;;;;10.70;7.97;;;;;;;0.85;80.50;102871.84;5053182;28;20104;-35
2022/03/07 08:22:14;;;;;;;9.80;7.63;;;;;;;0.98;80.44;102866.44;5053306;28;20032;-35
2022/03/07 08:24:40;;;;;;;9.50;7.93;;;;;;;0.98;78.67;102859.28;5053549;28;20024;-35
2022/03/07 08:27:05;;;;;;;10.53;7.73;;;;;;;1.05;77.31;102867.63;5053518;28;20029;-35
2022/03/07 08:29:31;;;;;;;8.23;7.33;;;;;;;1.22;78.19;102863.63;5053587;28;20037;-35
2022/03/07 08:31:56;;;;;;;8.90;7.80;;;;;;;1.27;75.88;102864.16;5053209;28;20040;-35
2022/03/07 08:34:21;;;;;;;9.10;7.47;;;;;;;1.21;75.27;102846.81;5053344;28;20110;-35
2022/03/07 08:36:47;;;;;;;10.13;6.40;;;;;;;1.43;74.95;102866.44;5053396;28;20052;-35
2022/03/07 08:39:12;;;;;;;8.10;6.53;;;;;;;1.53;74.39;102857.59;5052805;28;20414;-35
2022/03/07 08:41:37;;;;;;;8.37;6.60;;;;;;;1.60;74.09;102855.25;5053618;28;20029;-35
2022/03/07 08:44:03;;;;;;;6.77;5.63;;;;;;;1.78;73.22;102855.63;5052809;28;20533;-38
2022/03/07 08:46:28;;;;;;;9.80;6.00;;;;;;;1.77;70.70;102849.44;5053510;28;20410;-35
2022/03/07 08:48:54;;;;;;;7.20;5.77;;;;;;;1.93;70.85;102865.03;5053024;28;20048;-35
2022/03/07 08:51:19;;;;;;;6.47;5.17;;;;;;;2.05;70.29;102864.06;5053258;28;20106;-35
2022/03/07 08:53:45;;;;;;;9.17;5.37;;;;;;;2.23;71.91;102860.81;5052602;28;20364;-35
2022/03/07 08:56:11;;;;;;;5.63;4.97;;;;;;;2.26;70.26;102848.06;5052872;28;20681;-35
2022/03/07 08:58:37;;;;;;;5.38;4.72;;;;;;;2.40;69.20;102851.44;5052453;28;20025;-35
2022/03/07 09:01:03;;;;;;;9.10;5.13;;;;;;;2.45;69.60;102855.41;5053120;28;20036;-35
2022/03/07 09:03:28;;;;;;;7.22;5.00;;;;;;;2.55;68.71;102855.47;5052766;28;20112;-35
2022/03/07 09:05:53;;;;;;;6.70;4.70;;;;;;;2.54;66.34;102853.78;5055481;28;20418;-35
2022/03/07 09:08:19;;;;;;;6.50;5.40;;;;;;;2.41;66.84;102821.06;5056867;28;20470;-35
2022/03/07 09:10:44;;;;;;;9.93;7.67;;;;;;;2.61;66.18;102844.25;5057722;28;20036;-35
2022/03/07 09:13:09;;;;;;;7.67;6.27;;;;;;;2.71;66.99;102850.50;5056667;28;20033;-35
2022/03/07 09:15:35;;;;;;;6.87;4.93;;;;;;;2.67;64.92;102856.25;5056739;28;20025;-35
2022/03/07 09:18:01;;;;;;;6.80;5.00;;;;;;;2.73;65.94;102850.38;5056420;28;20029;-35
2022/03/07 09:20:27;;;;;;;5.95;4.15;;;;;;;2.83;65.90;102849.50;5056323;28;20025;-35
2022/03/07 09:22:52;;;;;;;8.73;4.07;;;;;;;2.87;65.19;102843.84;5056579;28;20124;-35
2022/03/07 09:25:19;;;;;;;5.80;4.68;;;;;;;2.83;64.65;102833.47;5056374;28;20436;-35
2022/03/07 09:27:45;;;;;;;5.07;3.70;;;;;;;2.89;62.81;102839.25;5056481;28;20033;-35
2022/03/07 09:30:12;;;;;;;5.85;4.22;;;;;;;3.06;63.29;102852.84;5056997;28;20035;-35
2022/03/07 09:32:37;;;;;;;5.80;3.58;;;;;;;3.10;62.26;102835.56;5056531;28;20080;-35
2022/03/07 09:35:03;;;;;;;4.23;3.83;;;;;;;3.03;60.89;102841.59;5056902;28;20076;-35
2022/03/07 09:37:29;;;;;;;5.80;3.78;;;;;;;3.23;62.34;102842.53;5056083;28;20631;-35
2022/03/07 09:39:54;;;;;;;4.47;3.43;;;;;;;3.32;61.90;102834.53;5056926;28;20029;-35
2022/03/07 09:42:21;;;;;;;4.87;3.60;;;;;;;3.48;61.07;102831.34;5056308;28;20060;-35
2022/03/07 09:44:47;;;;;;;5.82;4.30;;;;;;;3.65;60.97;102831.66;5056137;28;20732;-35
2022/03/07 09:47:14;;;;;;;5.43;4.07;;;;;;;3.61;58.91;102833.75;5056932;28;20036;-35
2022/03/07 09:49:39;;;;;;;4.32;3.22;;;;;;;3.40;58.82;102819.63;5056885;28;20457;-35
2022/03/07 09:52:05;;;;;;;5.22;3.55;;;;;;;3.48;59.82;102823.31;5056282;28;20186;-35
2022/03/07 09:54:31;;;;;;;6.10;3.97;;;;;;;3.54;60.88;102806.72;5056268;28;20059;-36
2022/03/07 09:56:56;;;;;;;8.00;3.90;;;;;;;3.79;60.74;102816.06;5055886;28;20484;-35
2022/03/07 09:59:22;;;;;;;4.97;3.90;;;;;;;3.74;59.34;102820.16;5055972;28;20097;-35
2022/03/07 10:02:13;;;;;;;4.30;3.53;;;;;;;3.73;58.19;102821.13;5055867;28;20032;-35
2022/03/07 10:04:42;;;;;;;5.97;3.45;;;;;;;3.74;57.91;102820.16;5056183;28;20081;-35
2022/03/07 10:07:08;;;;;;;4.97;3.55;;;;;;;3.74;58.17;102812.97;5056020;28;20035;-35
2022/03/07 10:09:33;;;;;;;5.03;2.87;;;;;;;3.74;58.28;102780.84;5055429;28;20338;-35
2022/03/07 10:12:03;;;;;;;5.72;3.30;;;;;;;3.91;57.54;102797.22;5056471;28;20029;-35
2022/03/07 10:14:45;;;;;;;5.97;3.00;;;;;;;3.91;57.34;102813.28;5055509;28;20017;-35
2022/03/07 10:17:31;;;;;;;3.70;2.38;;;;;;;3.98;57.86;102787.63;5054416;28;20036;-35
2022/03/07 10:20:03;;;;;;;4.00;3.20;;;;;;;4.02;56.99;102807.78;5055731;28;20056;-35
2022/03/07 10:22:29;;;;;;;6.43;2.88;;;;;;;4.17;56.98;102811.75;5055446;28;20040;-35
2022/03/07 10:25:22;;;;;;;4.97;2.83;;;;;;;4.39;56.74;102814.16;5055705;28;20089;-35
2022/03/07 10:27:49;;;;;;;4.13;2.90;;;;;;;4.44;55.82;102792.28;5054671;28;20029;-35
2022/03/07 10:30:23;;;;;;;4.80;2.88;;;;;;;4.49;55.64;102803.41;5055563;28;20029;-35
2022/03/07 10:32:54;;;;;;;5.10;2.85;;;;;;;4.62;56.84;102797.75;5055171;28;20032;-35
2022/03/07 10:35:32;;;;;;;3.38;2.70;;;;;;;4.85;57.77;102798.25;5055249;28;20049;-35
2022/03/07 10:38:00;;;;;;;4.07;2.70;;;;;;;4.75;55.41;102787.56;5054817;28;20041;-35
2022/03/07 10:40:27;;;;;;;3.50;2.90;;;;;;;4.77;55.10;102774.84;5054904;28;20086;-35
2022/03/07 10:42:53;;;;;;;6.53;3.17;;;;;;;4.83;55.23;102784.13;5053300;28;20025;-35
2022/03/07 10:45:20;;;;;;;5.18;2.90;;;;;;;4.90;54.68;102778.06;5055611;28;20470;-36
2022/03/07 10:47:57;;;;;;;4.03;2.72;;;;;;;4.96;54.70;102773.09;5054764;28;20078;-36
2022/03/07 10:50:23;;;;;;;4.60;2.70;;;;;;;5.06;55.30;102768.53;5054867;28;20086;-35
2022/03/07 10:52:51;;;;;;;6.93;3.08;;;;;;;5.12;53.92;102763.44;5054730;28;20056;-36
2022/03/07 10:55:23;;;;;;;4.05;2.83;;;;;;;4.93;54.73;102759.97;5055225;28;20078;-35
2022/03/07 10:57:49;;;;;;;3.72;2.60;;;;;;;5.01;54.10;102763.63;5054628;28;20539;-36
2022/03/07 11:00:17;;;;;;;4.10;2.73;;;;;;;5.09;54.30;102746.81;5054782;28;20033;-35
2022/03/07 11:02:47;;;;;;;4.15;2.78;;;;;;;5.08;54.18;102731.72;5054669;28;20029;-36
2022/03/07 11:05:14;;;;;;;4.10;2.70;;;;;;;5.02;54.06;102743.84;5054934;28;20052;-35
2022/03/07 11:07:43;;;;;;;3.15;2.85;;;;;;;5.08;54.06;102753.16;5054605;28;20030;-35
2022/03/07 11:10:10;;;;;;;3.88;2.50;;;;;;;5.14;53.37;102745.34;5054875;28;20056;-36
2022/03/07 11:12:36;;;;;;;4.88;2.95;;;;;;;4.96;52.68;102741.75;5054946;28;20021;-35
2022/03/07 11:15:08;;;;;;;3.38;2.65;;;;;;;4.83;52.38;102731.41;5054490;28;20029;-35
2022/03/07 11:17:39;;;;;;;3.15;2.33;;;;;;;5.07;54.62;102727.31;5054916;28;20025;-35
2022/03/07 11:20:06;;;;;;;4.15;2.53;;;;;;;5.33;54.32;102733.69;5054473;28;20033;-36
2022/03/07 11:22:32;;;;;;;6.38;2.97;;;;;;;5.45;53.12;102728.94;5054373;28;20067;-35